createdAt,value
2023-05-14T00:00:32.737Z,35.00
2023-05-14T00:01:32.802Z,34.98
2023-05-14T00:02:32.947Z,35.02
2023-05-14T00:03:32.971Z,35.01
2023-05-14T00:04:33.094Z,35.02
2023-05-14T00:05:33.014Z,34.98
2023-05-14T00:06:33.437Z,34.98
2023-05-14T00:07:33.442Z,35.00
2023-05-14T00:08:33.449Z,35.01
2023-05-14T00:09:33.524Z,34.97
2023-05-14T00:10:33.453Z,34.98
2023-05-14T00:11:33.437Z,34.99
2023-05-14T00:12:33.469Z,34.97
2023-05-14T00:13:33.427Z,35.03
2023-05-14T00:14:33.436Z,35.02
2023-05-14T00:15:34.556Z,35.04
2023-05-14T00:16:33.478Z,35.03
2023-05-14T00:17:33.475Z,35.04
2023-05-14T00:18:33.543Z,35.01
2023-05-14T00:19:33.450Z,35.04
2023-05-14T00:20:33.431Z,35.07
2023-05-14T00:21:33.442Z,35.08
2023-05-14T00:22:33.486Z,35.07
2023-05-14T00:23:33.430Z,35.04
2023-05-14T00:24:33.443Z,35.07
2023-05-14T00:25:33.431Z,35.05
2023-05-14T00:26:33.462Z,35.04
2023-05-14T00:27:33.430Z,35.05
2023-05-14T00:28:33.493Z,35.08
2023-05-14T00:29:33.428Z,35.08
2023-05-14T00:30:33.442Z,35.04
2023-05-14T00:31:33.472Z,35.05
2023-05-14T00:32:33.463Z,35.04
2023-05-14T00:33:33.443Z,35.08
2023-05-14T00:34:33.437Z,35.08
2023-05-14T00:35:33.438Z,35.06
2023-05-14T00:36:33.440Z,35.01
2023-05-14T00:37:33.453Z,35.04
2023-05-14T00:38:33.431Z,35.05
2023-05-14T00:39:33.430Z,35.05
2023-05-14T00:40:33.443Z,35.06
2023-05-14T00:41:33.450Z,35.09
2023-05-14T00:42:33.450Z,35.05
2023-05-14T00:43:33.436Z,35.08
2023-05-14T00:44:33.487Z,35.05
2023-05-14T00:45:33.438Z,35.09
2023-05-14T00:46:33.514Z,35.08
2023-05-14T00:47:33.480Z,35.03
2023-05-14T00:48:33.447Z,35.05
2023-05-14T00:49:33.441Z,35.10
2023-05-14T00:50:33.450Z,35.09
2023-05-14T00:51:33.431Z,35.09
2023-05-14T00:52:33.439Z,35.08
2023-05-14T00:53:33.451Z,35.06
2023-05-14T00:54:33.429Z,35.06
2023-05-14T00:55:33.433Z,35.08
2023-05-14T00:56:33.449Z,35.06
2023-05-14T00:57:33.446Z,35.05
2023-05-14T00:58:33.466Z,35.06
2023-05-14T00:59:33.438Z,35.06
2023-05-14T01:00:33.520Z,35.04
2023-05-14T01:01:33.497Z,35.06
2023-05-14T01:02:33.545Z,35.04
2023-05-14T01:03:33.587Z,35.07
2023-05-14T01:04:33.432Z,35.06
2023-05-14T01:05:33.436Z,35.10
2023-05-14T01:06:33.436Z,35.05
2023-05-14T01:07:33.440Z,35.07
2023-05-14T01:08:33.436Z,35.10
2023-05-14T01:09:33.436Z,35.11
2023-05-14T01:10:33.430Z,35.05
2023-05-14T01:11:33.494Z,35.07
2023-05-14T01:12:33.440Z,35.05
2023-05-14T01:13:33.426Z,35.11
2023-05-14T01:14:33.431Z,35.05
2023-05-14T01:15:33.575Z,35.09
2023-05-14T01:16:33.523Z,35.10
2023-05-14T01:17:33.445Z,35.08
2023-05-14T01:18:33.522Z,35.06
2023-05-14T01:19:33.423Z,35.02
2023-05-14T01:20:33.439Z,35.06
2023-05-14T01:21:33.425Z,35.05
2023-05-14T01:22:33.425Z,35.06
2023-05-14T01:23:33.431Z,35.05
2023-05-14T01:24:33.431Z,35.05
2023-05-14T01:25:33.435Z,35.03
2023-05-14T01:26:33.442Z,35.06
2023-05-14T01:27:33.461Z,35.05
2023-05-14T01:28:33.446Z,35.04
2023-05-14T01:29:33.420Z,35.07
2023-05-14T01:30:33.428Z,35.07
2023-05-14T01:31:33.493Z,35.07
2023-05-14T01:32:33.483Z,35.08
2023-05-14T01:33:33.429Z,35.04
2023-05-14T01:34:33.428Z,35.08
2023-05-14T01:35:33.427Z,35.01
2023-05-14T01:36:33.427Z,35.06
2023-05-14T01:37:33.420Z,35.04
2023-05-14T01:38:33.420Z,35.03
2023-05-14T01:39:33.436Z,35.04
2023-05-14T01:40:33.429Z,35.02
2023-05-14T01:41:33.433Z,35.07
2023-05-14T01:42:33.419Z,35.06
2023-05-14T01:43:33.448Z,35.06
2023-05-14T01:44:33.424Z,35.11
2023-05-14T01:45:33.427Z,35.07
2023-05-14T01:46:33.611Z,35.06
2023-05-14T01:47:33.451Z,35.06
2023-05-14T01:48:33.442Z,35.06
2023-05-14T01:49:33.419Z,35.03
2023-05-14T01:50:33.460Z,35.10
2023-05-14T01:51:33.426Z,35.04
2023-05-14T01:52:33.417Z,35.03
2023-05-14T01:53:33.418Z,35.05
2023-05-14T01:54:33.418Z,35.06
2023-05-14T01:55:33.424Z,35.01
2023-05-14T01:56:33.421Z,35.03
2023-05-14T01:57:33.425Z,35.07
2023-05-14T01:58:33.436Z,35.04
2023-05-14T01:59:33.435Z,35.06
2023-05-14T02:00:33.418Z,35.07
2023-05-14T02:01:33.469Z,35.08
2023-05-14T02:02:33.436Z,35.01
2023-05-14T02:03:33.486Z,35.07
2023-05-14T02:04:33.450Z,35.04
2023-05-14T02:05:33.424Z,35.05
2023-05-14T02:06:33.421Z,35.04
2023-05-14T02:07:33.426Z,35.02
2023-05-14T02:08:33.425Z,35.06
2023-05-14T02:09:33.429Z,35.04
2023-05-14T02:10:33.425Z,35.04
2023-05-14T02:11:33.419Z,35.03
2023-05-14T02:12:33.416Z,35.07
2023-05-14T02:13:33.416Z,35.04
2023-05-14T02:14:33.425Z,35.07
2023-05-14T02:15:33.427Z,35.09
2023-05-14T02:16:33.481Z,35.02
2023-05-14T02:17:33.585Z,35.06
2023-05-14T02:18:33.525Z,35.08
2023-05-14T02:19:33.422Z,35.04
2023-05-14T02:20:33.742Z,35.02
2023-05-14T02:21:33.417Z,35.06
2023-05-14T02:22:33.426Z,35.05
2023-05-14T02:23:41.164Z,35.02
2023-05-14T02:24:33.496Z,35.02
2023-05-14T02:25:33.428Z,35.02
2023-05-14T02:26:33.434Z,35.05
2023-05-14T02:27:33.421Z,35.02
2023-05-14T02:28:33.419Z,35.05
2023-05-14T02:29:33.420Z,35.07
2023-05-14T02:30:33.432Z,35.04
2023-05-14T02:31:33.455Z,35.08
2023-05-14T02:32:33.487Z,35.09
2023-05-14T02:33:33.444Z,35.06
2023-05-14T02:34:33.425Z,35.04
2023-05-14T02:35:33.426Z,35.04
2023-05-14T02:36:33.446Z,34.99
2023-05-14T02:37:33.441Z,35.04
2023-05-14T02:38:33.425Z,35.03
2023-05-14T02:39:33.436Z,35.01
2023-05-14T02:40:33.429Z,35.02
2023-05-14T02:41:33.423Z,35.02
2023-05-14T02:42:33.424Z,35.05
2023-05-14T02:43:33.424Z,35.04
2023-05-14T02:44:33.422Z,35.06
2023-05-14T02:45:33.426Z,35.03
2023-05-14T02:46:33.502Z,35.02
2023-05-14T02:47:34.775Z,35.05
2023-05-14T02:48:33.457Z,35.02
2023-05-14T02:49:33.442Z,34.98
2023-05-14T02:50:33.427Z,35.00
2023-05-14T02:51:33.378Z,35.03
2023-05-14T02:52:33.381Z,35.00
2023-05-14T02:53:33.025Z,35.03
2023-05-14T02:54:33.025Z,35.03
2023-05-14T02:55:33.001Z,34.99
2023-05-14T02:56:32.998Z,35.05
2023-05-14T02:57:32.996Z,35.02
2023-05-14T02:58:33.003Z,35.00
2023-05-14T02:59:32.968Z,35.05
2023-05-14T03:00:33.006Z,35.01
2023-05-14T03:01:32.952Z,35.05
2023-05-14T03:02:33.019Z,35.03
2023-05-14T03:03:32.942Z,35.04
2023-05-14T03:04:32.932Z,35.04
2023-05-14T03:05:32.923Z,35.02
2023-05-14T03:06:32.916Z,35.01
2023-05-14T03:07:32.899Z,35.01
2023-05-14T03:08:32.924Z,35.06
2023-05-14T03:09:32.899Z,35.03
2023-05-14T03:10:32.925Z,35.01
2023-05-14T03:11:32.875Z,35.00
2023-05-14T03:12:32.871Z,35.01
2023-05-14T03:13:32.868Z,35.01
2023-05-14T03:14:32.855Z,35.01
2023-05-14T03:15:32.846Z,35.01
2023-05-14T03:16:32.873Z,35.03
2023-05-14T03:17:32.967Z,35.04
2023-05-14T03:18:32.865Z,35.03
2023-05-14T03:19:32.849Z,34.99
2023-05-14T03:20:32.820Z,35.03
2023-05-14T03:21:32.816Z,35.06
2023-05-14T03:22:32.806Z,35.00
2023-05-14T03:23:32.799Z,34.99
2023-05-14T03:24:32.937Z,35.04
2023-05-14T03:25:32.805Z,35.01
2023-05-14T03:26:32.814Z,35.02
2023-05-14T03:27:32.776Z,35.04
2023-05-14T03:28:32.770Z,35.02
2023-05-14T03:29:32.758Z,35.05
2023-05-14T03:30:32.799Z,35.04
2023-05-14T03:31:32.750Z,35.02
2023-05-14T03:32:32.799Z,34.97
2023-05-14T03:33:32.730Z,34.98
2023-05-14T03:34:32.742Z,35.04
2023-05-14T03:35:32.792Z,35.04
2023-05-14T03:36:32.720Z,34.97
2023-05-14T03:37:33.426Z,35.03
2023-05-14T03:38:32.693Z,35.02
2023-05-14T03:39:32.702Z,34.98
2023-05-14T03:40:32.716Z,35.01
2023-05-14T03:41:32.689Z,35.01
2023-05-14T03:42:32.681Z,35.00
2023-05-14T03:43:32.667Z,35.01
2023-05-14T03:44:32.662Z,34.99
2023-05-14T03:45:32.666Z,35.00
2023-05-14T03:46:32.650Z,35.01
2023-05-14T03:47:32.717Z,35.01
2023-05-14T03:48:32.686Z,34.99
2023-05-14T03:49:32.638Z,35.01
2023-05-14T03:50:32.635Z,34.98
2023-05-14T03:51:32.653Z,34.95
2023-05-14T03:52:32.622Z,35.00
2023-05-14T03:53:32.677Z,35.02
2023-05-14T03:54:32.635Z,35.01
2023-05-14T03:55:32.656Z,35.02
2023-05-14T03:56:32.682Z,35.01
2023-05-14T03:57:32.673Z,35.01
2023-05-14T03:58:32.677Z,34.97
2023-05-14T03:59:32.690Z,34.98
2023-05-14T04:00:32.715Z,34.98
2023-05-14T04:01:32.731Z,35.00
2023-05-14T04:02:32.846Z,35.01
2023-05-14T04:03:32.963Z,35.00
2023-05-14T04:04:32.801Z,34.98
2023-05-14T04:05:32.802Z,34.98
2023-05-14T04:06:32.828Z,34.98
2023-05-14T04:07:32.840Z,34.98
2023-05-14T04:08:32.861Z,34.98
2023-05-14T04:09:32.871Z,34.97
2023-05-14T04:10:32.887Z,35.00
2023-05-14T04:11:32.908Z,34.99
2023-05-14T04:12:32.954Z,34.97
2023-05-14T04:13:32.929Z,34.93
2023-05-14T04:14:32.935Z,34.99
2023-05-14T04:15:32.964Z,34.95
2023-05-14T04:16:33.024Z,35.00
2023-05-14T04:17:34.995Z,34.96
2023-05-14T04:18:33.007Z,34.98
2023-05-14T04:19:32.976Z,34.93
2023-05-14T04:20:32.969Z,34.96
2023-05-14T04:21:32.954Z,34.98
2023-05-14T04:22:32.949Z,34.97
2023-05-14T04:23:32.936Z,34.95
2023-05-14T04:24:32.944Z,34.92
2023-05-14T04:25:32.928Z,34.99
2023-05-14T04:26:32.923Z,34.99
2023-05-14T04:27:32.906Z,34.97
2023-05-14T04:28:32.924Z,34.94
2023-05-14T04:29:32.893Z,34.98
2023-05-14T04:30:32.887Z,34.97
2023-05-14T04:31:32.917Z,34.95
2023-05-14T04:32:33.787Z,34.98
2023-05-14T04:33:32.873Z,34.99
2023-05-14T04:34:32.867Z,34.94
2023-05-14T04:35:32.854Z,34.95
2023-05-14T04:36:32.876Z,34.92
2023-05-14T04:37:32.841Z,34.95
2023-05-14T04:38:32.838Z,34.97
2023-05-14T04:39:32.834Z,34.97
2023-05-14T04:40:32.815Z,34.94
2023-05-14T04:41:32.812Z,34.92
2023-05-14T04:42:32.816Z,34.94
2023-05-14T04:43:32.800Z,34.90
2023-05-14T04:44:32.820Z,34.91
2023-05-14T04:45:34.342Z,34.99
2023-05-14T04:46:33.056Z,34.95
2023-05-14T04:47:33.395Z,34.99
2023-05-14T04:48:33.418Z,34.96
2023-05-14T04:49:33.428Z,34.93
2023-05-14T04:50:33.419Z,34.95
2023-05-14T04:51:33.424Z,34.94
2023-05-14T04:52:33.419Z,34.92
2023-05-14T04:53:33.411Z,34.91
2023-05-14T04:54:33.432Z,34.94
2023-05-14T04:55:33.423Z,34.94
2023-05-14T04:56:33.449Z,34.97
2023-05-14T04:57:33.460Z,34.93
2023-05-14T04:58:35.131Z,34.95
2023-05-14T04:59:33.436Z,34.90
2023-05-14T05:00:33.510Z,34.99
2023-05-14T05:01:33.522Z,34.94
2023-05-14T05:02:33.472Z,34.94
2023-05-14T05:03:33.505Z,34.95
2023-05-14T05:04:33.461Z,34.92
2023-05-14T05:05:33.424Z,34.93
2023-05-14T05:06:33.432Z,34.93
2023-05-14T05:07:33.431Z,34.95
2023-05-14T05:08:33.421Z,34.94
2023-05-14T05:09:33.425Z,34.92
2023-05-14T05:10:33.435Z,34.92
2023-05-14T05:11:33.422Z,34.93
2023-05-14T05:12:33.420Z,34.95
2023-05-14T05:13:33.424Z,34.94
2023-05-14T05:14:33.415Z,34.93
2023-05-14T05:15:33.426Z,34.90
2023-05-14T05:16:33.480Z,34.95
2023-05-14T05:17:33.383Z,34.91
2023-05-14T05:18:33.891Z,34.94
2023-05-14T05:19:43.073Z,34.93
2023-05-14T05:20:33.008Z,34.92
2023-05-14T05:21:32.990Z,34.92
2023-05-14T05:22:33.005Z,34.90
2023-05-14T05:23:32.969Z,34.94
2023-05-14T05:24:32.962Z,34.93
2023-05-14T05:25:32.961Z,34.92
2023-05-14T05:26:32.953Z,34.88
2023-05-14T05:27:32.966Z,34.91
2023-05-14T05:28:32.944Z,34.91
2023-05-14T05:29:32.931Z,34.92
2023-05-14T05:30:32.919Z,34.90
2023-05-14T05:31:33.514Z,34.90
2023-05-14T05:32:32.946Z,34.94
2023-05-14T05:33:32.909Z,34.89
2023-05-14T05:34:32.901Z,34.91
2023-05-14T05:35:32.888Z,34.88
2023-05-14T05:36:32.883Z,34.89
2023-05-14T05:37:32.876Z,34.92
2023-05-14T05:38:32.882Z,34.88
2023-05-14T05:39:32.884Z,34.91
2023-05-14T05:40:32.859Z,34.88
2023-05-14T05:41:32.849Z,34.92
2023-05-14T05:42:32.839Z,34.90
2023-05-14T05:43:32.834Z,34.90
2023-05-14T05:44:32.822Z,34.92
2023-05-14T05:45:32.813Z,34.90
2023-05-14T05:46:32.859Z,34.89
2023-05-14T05:47:32.835Z,34.89
2023-05-14T05:48:32.913Z,34.93
2023-05-14T05:49:32.789Z,34.91
2023-05-14T05:50:32.775Z,34.84
2023-05-14T05:51:32.783Z,34.84
2023-05-14T05:52:32.767Z,34.87
2023-05-14T05:53:32.758Z,34.84
2023-05-14T05:54:32.756Z,34.86
2023-05-14T05:55:32.753Z,34.84
2023-05-14T05:56:32.741Z,34.83
2023-05-14T05:57:32.750Z,34.82
2023-05-14T05:58:32.726Z,34.86
2023-05-14T05:59:32.730Z,34.86
2023-05-14T06:00:32.729Z,34.80
2023-05-14T06:01:32.709Z,34.77
2023-05-14T06:02:32.849Z,34.82
2023-05-14T06:03:32.693Z,34.80
2023-05-14T06:04:32.711Z,34.77
2023-05-14T06:05:32.718Z,34.83
2023-05-14T06:06:32.714Z,34.82
2023-05-14T06:07:32.683Z,34.82
2023-05-14T06:08:32.655Z,34.80
2023-05-14T06:09:32.648Z,34.83
2023-05-14T06:10:32.642Z,34.77
2023-05-14T06:11:32.668Z,34.77
2023-05-14T06:12:32.638Z,34.78
2023-05-14T06:13:32.623Z,34.80
2023-05-14T06:14:32.620Z,34.78
2023-05-14T06:15:32.612Z,34.80
2023-05-14T06:16:32.648Z,34.80
2023-05-14T06:17:32.638Z,34.79
2023-05-14T06:18:32.622Z,34.79
2023-05-14T06:19:32.603Z,34.75
2023-05-14T06:20:32.616Z,34.77
2023-05-14T06:21:32.594Z,34.75
2023-05-14T06:22:32.603Z,34.76
2023-05-14T06:23:32.629Z,34.79
2023-05-14T06:24:32.632Z,34.74
2023-05-14T06:25:32.629Z,34.76
2023-05-14T06:26:32.664Z,34.79
2023-05-14T06:27:32.645Z,34.72
2023-05-14T06:28:32.661Z,34.71
2023-05-14T06:29:32.660Z,34.74
2023-05-14T06:30:32.664Z,34.74
2023-05-14T06:31:32.769Z,34.73
2023-05-14T06:32:32.749Z,34.71
2023-05-14T06:33:32.699Z,34.71
2023-05-14T06:34:32.708Z,34.72
2023-05-14T06:35:32.708Z,34.69
2023-05-14T06:36:32.741Z,34.75
2023-05-14T06:37:32.720Z,34.73
2023-05-14T06:38:32.728Z,34.68
2023-05-14T06:39:32.728Z,34.67
2023-05-14T06:40:32.730Z,34.70
2023-05-14T06:41:32.739Z,34.70
2023-05-14T06:42:32.741Z,34.68
2023-05-14T06:43:32.759Z,34.69
2023-05-14T06:44:32.751Z,34.66
2023-05-14T06:45:33.351Z,34.69
2023-05-14T06:46:32.739Z,34.70
2023-05-14T06:47:32.755Z,34.70
2023-05-14T06:48:32.795Z,34.68
2023-05-14T06:49:32.748Z,34.68
2023-05-14T06:50:32.751Z,34.66
2023-05-14T06:51:32.758Z,34.67
2023-05-14T06:52:32.770Z,34.66
2023-05-14T06:53:32.751Z,34.67
2023-05-14T06:54:32.739Z,34.67
2023-05-14T06:55:32.743Z,34.64
2023-05-14T06:56:32.747Z,34.67
2023-05-14T06:57:32.753Z,34.64
2023-05-14T06:58:32.762Z,34.65
2023-05-14T06:59:32.748Z,34.64
2023-05-14T07:00:32.743Z,34.66
2023-05-14T07:01:32.792Z,34.63
2023-05-14T07:02:32.778Z,34.63
2023-05-14T07:03:32.759Z,34.64
2023-05-14T07:04:32.760Z,34.64
2023-05-14T07:05:32.753Z,34.63
2023-05-14T07:06:32.762Z,34.64
2023-05-14T07:07:32.792Z,34.66
2023-05-14T07:08:32.768Z,34.59
2023-05-14T07:09:32.749Z,34.63
2023-05-14T07:10:32.750Z,34.63
2023-05-14T07:11:32.741Z,34.63
2023-05-14T07:12:32.744Z,34.62
2023-05-14T07:13:32.742Z,34.62
2023-05-14T07:14:32.741Z,34.63
2023-05-14T07:15:32.728Z,34.56
2023-05-14T07:16:32.807Z,34.61
2023-05-14T07:17:32.747Z,34.63
2023-05-14T07:18:32.750Z,34.61
2023-05-14T07:19:32.723Z,34.57
2023-05-14T07:20:33.442Z,34.57
2023-05-14T07:21:32.725Z,34.57
2023-05-14T07:22:32.730Z,34.59
2023-05-14T07:23:32.724Z,34.53
2023-05-14T07:24:32.763Z,34.57
2023-05-14T07:25:32.744Z,34.55
2023-05-14T07:26:32.735Z,34.55
2023-05-14T07:27:32.728Z,34.53
2023-05-14T07:28:32.736Z,34.53
2023-05-14T07:29:32.731Z,34.52
2023-05-14T07:30:32.745Z,34.51
2023-05-14T07:31:32.814Z,34.53
2023-05-14T07:32:32.765Z,34.51
2023-05-14T07:33:32.739Z,34.53
2023-05-14T07:34:32.728Z,34.52
2023-05-14T07:35:32.747Z,34.53
2023-05-14T07:36:32.744Z,34.50
2023-05-14T07:37:32.758Z,34.53
2023-05-14T07:38:32.734Z,34.53
2023-05-14T07:39:32.736Z,34.52
2023-05-14T07:40:32.765Z,34.48
2023-05-14T07:41:32.739Z,34.53
2023-05-14T07:42:36.525Z,34.53
2023-05-14T07:43:32.765Z,34.49
2023-05-14T07:44:32.754Z,34.49
2023-05-14T07:45:32.868Z,34.49
2023-05-14T07:46:32.775Z,34.48
2023-05-14T07:47:33.078Z,34.46
2023-05-14T07:48:32.941Z,34.49
2023-05-14T07:49:32.827Z,34.49
2023-05-14T07:50:32.849Z,34.44
2023-05-14T07:51:32.867Z,34.47
2023-05-14T07:52:32.900Z,34.51
2023-05-14T07:53:32.911Z,34.47
2023-05-14T07:54:32.930Z,34.50
2023-05-14T07:55:33.030Z,34.47
2023-05-14T07:56:33.000Z,34.47
2023-05-14T07:57:32.993Z,34.49
2023-05-14T07:58:32.995Z,34.47
2023-05-14T07:59:33.019Z,34.48
2023-05-14T08:00:33.014Z,34.46
2023-05-14T08:01:33.425Z,34.49
2023-05-14T08:02:33.152Z,34.48
2023-05-14T08:03:33.136Z,34.49
2023-05-14T08:04:33.542Z,34.47
2023-05-14T08:05:33.431Z,34.47
2023-05-14T08:06:33.067Z,34.48
2023-05-14T08:07:33.064Z,34.51
2023-05-14T08:08:33.433Z,34.48
2023-05-14T08:09:33.432Z,34.47
2023-05-14T08:10:33.472Z,34.48
2023-05-14T08:11:33.538Z,34.51
2023-05-14T08:12:33.522Z,34.49
2023-05-14T08:13:33.505Z,34.49
2023-05-14T08:14:33.514Z,34.48
2023-05-14T08:15:33.480Z,34.47
2023-05-14T08:16:33.541Z,34.51
2023-05-14T08:17:33.540Z,34.49
2023-05-14T08:18:33.503Z,34.46
2023-05-14T08:19:33.492Z,34.53
2023-05-14T08:20:33.512Z,34.53
2023-05-14T08:21:33.490Z,34.43
2023-05-14T08:22:33.514Z,34.45
2023-05-14T08:23:33.491Z,34.49
2023-05-14T08:24:33.496Z,34.46
2023-05-14T08:25:33.516Z,34.48
2023-05-14T08:26:33.505Z,34.47
2023-05-14T08:27:33.559Z,34.51
2023-05-14T08:28:33.522Z,34.47
2023-05-14T08:29:33.498Z,34.46
2023-05-14T08:30:33.587Z,34.48
2023-05-14T08:31:33.559Z,34.51
2023-05-14T08:32:33.525Z,34.48
2023-05-14T08:33:33.549Z,34.48
2023-05-14T08:34:33.581Z,34.47
2023-05-14T08:35:33.586Z,34.46
2023-05-14T08:36:33.624Z,34.46
2023-05-14T08:37:33.681Z,34.45
2023-05-14T08:38:33.715Z,34.48
2023-05-14T08:39:33.769Z,34.46
2023-05-14T08:40:33.785Z,34.45
2023-05-14T08:41:33.802Z,34.45
2023-05-14T08:42:33.833Z,34.46
2023-05-14T08:43:33.863Z,34.46
2023-05-14T08:44:33.914Z,34.45
2023-05-14T08:45:33.993Z,34.42
2023-05-14T08:46:33.995Z,34.43
2023-05-14T08:47:34.472Z,34.40
2023-05-14T08:48:34.660Z,34.44
2023-05-14T08:49:34.434Z,34.44
2023-05-14T08:50:34.439Z,34.48
2023-05-14T08:51:34.433Z,34.41
2023-05-14T08:52:34.484Z,34.44
2023-05-14T08:53:34.441Z,34.44
2023-05-14T08:54:34.517Z,34.43
2023-05-14T08:55:34.489Z,34.36
2023-05-14T08:56:34.545Z,34.39
2023-05-14T08:57:34.586Z,34.37
2023-05-14T08:58:34.600Z,34.37
2023-05-14T08:59:34.648Z,34.39
2023-05-14T09:00:34.727Z,34.39
2023-05-14T09:01:34.753Z,34.41
2023-05-14T09:02:34.861Z,34.38
2023-05-14T09:03:34.921Z,34.35
2023-05-14T09:04:35.088Z,34.32
2023-05-14T09:05:34.974Z,34.35
2023-05-14T09:06:35.035Z,34.33
2023-05-14T09:07:35.100Z,34.33
2023-05-14T09:08:35.164Z,34.32
2023-05-14T09:09:35.219Z,34.30
2023-05-14T09:10:35.277Z,34.29
2023-05-14T09:11:35.348Z,34.29
2023-05-14T09:12:35.390Z,34.30
2023-05-14T09:13:35.450Z,34.30
2023-05-14T09:14:35.505Z,34.27
2023-05-14T09:15:35.569Z,34.27
2023-05-14T09:16:35.710Z,34.25
2023-05-14T09:17:35.749Z,34.29
2023-05-14T09:18:35.797Z,34.29
2023-05-14T09:19:35.785Z,34.30
2023-05-14T09:20:35.848Z,34.29
2023-05-14T09:21:35.896Z,34.25
2023-05-14T09:22:35.957Z,34.28
2023-05-14T09:23:36.046Z,34.25
2023-05-14T09:24:36.098Z,34.22
2023-05-14T09:25:36.145Z,34.25
2023-05-14T09:26:36.185Z,34.26
2023-05-14T09:27:36.233Z,34.22
2023-05-14T09:28:36.285Z,34.25
2023-05-14T09:29:36.333Z,34.28
2023-05-14T09:30:36.392Z,34.29
2023-05-14T09:31:36.506Z,34.28
2023-05-14T09:32:36.597Z,34.28
2023-05-14T09:33:36.573Z,34.23
2023-05-14T09:34:36.620Z,34.30
2023-05-14T09:35:36.669Z,34.25
2023-05-14T09:36:36.725Z,34.24
2023-05-14T09:37:36.777Z,34.26
2023-05-14T09:38:36.807Z,34.30
2023-05-14T09:39:36.865Z,34.26
2023-05-14T09:40:36.912Z,34.30
2023-05-14T09:41:36.968Z,34.24
2023-05-14T09:42:37.018Z,34.26
2023-05-14T09:43:37.065Z,34.20
2023-05-14T09:44:37.103Z,34.19
2023-05-14T09:45:37.153Z,34.22
2023-05-14T09:46:37.199Z,34.27
2023-05-14T09:47:37.368Z,34.27
2023-05-14T09:48:37.364Z,34.26
2023-05-14T09:49:37.329Z,34.22
2023-05-14T09:50:37.375Z,34.23
2023-05-14T09:51:37.427Z,34.27
2023-05-14T09:52:37.494Z,34.29
2023-05-14T09:53:37.515Z,34.28
2023-05-14T09:54:37.585Z,34.26
2023-05-14T09:55:37.614Z,34.30
2023-05-14T09:56:37.659Z,34.27
2023-05-14T09:57:37.700Z,34.26
2023-05-14T09:58:37.750Z,34.23
2023-05-14T09:59:37.800Z,34.26
2023-05-14T10:00:37.848Z,34.25
2023-05-14T10:01:38.010Z,34.22
2023-05-14T10:02:38.400Z,34.26
2023-05-14T10:03:37.990Z,34.28
2023-05-14T10:04:38.078Z,34.24
2023-05-14T10:05:38.086Z,34.30
2023-05-14T10:06:38.130Z,34.27
2023-05-14T10:07:38.183Z,34.28
2023-05-14T10:08:38.228Z,34.29
2023-05-14T10:09:38.276Z,34.27
2023-05-14T10:10:38.326Z,34.27
2023-05-14T10:11:38.375Z,34.28
2023-05-14T10:12:38.421Z,34.28
2023-05-14T10:13:38.479Z,34.26
2023-05-14T10:14:38.514Z,34.28
2023-05-14T10:15:38.580Z,34.28
2023-05-14T10:16:38.719Z,34.28
2023-05-14T10:17:38.687Z,34.30
2023-05-14T10:18:38.730Z,34.25
2023-05-14T10:19:38.766Z,34.28
2023-05-14T10:20:38.839Z,34.27
2023-05-14T10:21:38.871Z,34.28
2023-05-14T10:22:38.971Z,34.30
2023-05-14T10:23:38.960Z,34.28
2023-05-14T10:24:39.037Z,34.31
2023-05-14T10:25:39.076Z,34.28
2023-05-14T10:26:39.101Z,34.27
2023-05-14T10:27:39.154Z,34.26
2023-05-14T10:28:39.570Z,34.29
2023-05-14T10:29:39.618Z,34.29
2023-05-14T10:30:39.610Z,34.33
2023-05-14T10:31:39.693Z,34.29
2023-05-14T10:32:39.641Z,34.27
2023-05-14T10:33:39.609Z,34.25
2023-05-14T10:34:39.607Z,34.26
2023-05-14T10:35:39.616Z,34.24
2023-05-14T10:36:39.665Z,34.28
2023-05-14T10:37:39.651Z,34.27
2023-05-14T10:38:39.675Z,34.23
2023-05-14T10:39:39.717Z,34.26
2023-05-14T10:40:39.749Z,34.30
2023-05-14T10:41:39.800Z,34.28
2023-05-14T10:42:39.839Z,34.30
2023-05-14T10:43:39.891Z,34.27
2023-05-14T10:44:39.949Z,34.27
2023-05-14T10:45:39.973Z,34.26
2023-05-14T10:46:40.143Z,34.26
2023-05-14T10:47:40.100Z,34.25
2023-05-14T10:48:40.509Z,34.26
2023-05-14T10:49:43.854Z,34.25
2023-05-14T10:50:40.546Z,34.25
2023-05-14T10:51:40.621Z,34.25
2023-05-14T10:52:40.545Z,34.25
2023-05-14T10:53:40.512Z,34.25
2023-05-14T10:54:40.511Z,34.22
2023-05-14T10:55:40.513Z,34.24
2023-05-14T10:56:40.473Z,34.22
2023-05-14T10:57:40.478Z,34.22
2023-05-14T10:58:40.105Z,34.26
2023-05-14T10:59:40.101Z,34.24
2023-05-14T11:00:40.092Z,34.24
2023-05-14T11:01:40.529Z,34.27
2023-05-14T11:02:40.612Z,34.24
2023-05-14T11:03:40.546Z,34.27
2023-05-14T11:04:40.536Z,34.26
2023-05-14T11:05:40.529Z,34.26
2023-05-14T11:06:40.545Z,34.23
2023-05-14T11:07:40.551Z,34.26
2023-05-14T11:08:40.580Z,34.26
2023-05-14T11:09:40.541Z,34.29
2023-05-14T11:10:40.549Z,34.25
2023-05-14T11:11:40.578Z,34.25
2023-05-14T11:12:40.659Z,34.29
2023-05-14T11:13:40.666Z,34.22
2023-05-14T11:14:40.721Z,34.25
2023-05-14T11:15:40.757Z,34.30
2023-05-14T11:16:40.811Z,34.21
2023-05-14T11:17:40.869Z,34.24
2023-05-14T11:18:40.960Z,34.27
2023-05-14T11:19:40.923Z,34.25
2023-05-14T11:20:40.952Z,34.28
2023-05-14T11:21:41.056Z,34.31
2023-05-14T11:22:41.049Z,34.26
2023-05-14T11:23:41.081Z,34.25
2023-05-14T11:24:41.134Z,34.20
2023-05-14T11:25:41.149Z,34.25
2023-05-14T11:26:41.370Z,34.31
2023-05-14T11:27:41.261Z,34.26
2023-05-14T11:28:41.282Z,34.30
2023-05-14T11:29:41.375Z,34.26
2023-05-14T11:30:41.361Z,34.26
2023-05-14T11:31:41.411Z,34.27
2023-05-14T11:32:41.631Z,34.28
2023-05-14T11:33:41.491Z,34.27
2023-05-14T11:34:41.531Z,34.28
2023-05-14T11:35:41.575Z,34.31
2023-05-14T11:36:41.615Z,34.31
2023-05-14T11:37:41.664Z,34.30
2023-05-14T11:38:41.719Z,34.31
2023-05-14T11:39:41.762Z,34.32
2023-05-14T11:40:41.837Z,34.28
2023-05-14T11:41:41.848Z,34.30
2023-05-14T11:42:41.899Z,34.31
2023-05-14T11:43:41.933Z,34.36
2023-05-14T11:44:41.976Z,34.33
2023-05-14T11:45:42.039Z,34.29
2023-05-14T11:46:42.105Z,34.36
2023-05-14T11:47:42.254Z,34.36
2023-05-14T11:48:42.160Z,34.31
2023-05-14T11:49:42.198Z,34.34
2023-05-14T11:50:42.238Z,34.32
2023-05-14T11:51:42.285Z,34.31
2023-05-14T11:52:42.324Z,34.35
2023-05-14T11:53:42.384Z,34.33
2023-05-14T11:54:42.925Z,34.37
2023-05-14T11:55:42.501Z,34.33
2023-05-14T11:56:42.520Z,34.36
2023-05-14T11:57:42.542Z,34.36
2023-05-14T11:58:42.576Z,34.32
2023-05-14T11:59:42.618Z,34.32
2023-05-14T12:00:42.679Z,34.32
2023-05-14T12:01:42.710Z,34.32
2023-05-14T12:02:42.834Z,34.38
2023-05-14T12:03:42.988Z,34.37
2023-05-14T12:04:42.921Z,34.37
2023-05-14T12:05:42.910Z,34.34
2023-05-14T12:06:42.948Z,34.38
2023-05-14T12:07:42.984Z,34.31
2023-05-14T12:08:43.021Z,34.31
2023-05-14T12:09:45.159Z,34.34
2023-05-14T12:10:43.057Z,34.32
2023-05-14T12:11:43.048Z,34.35
2023-05-14T12:12:43.066Z,34.35
2023-05-14T12:13:43.046Z,34.31
2023-05-14T12:14:43.026Z,34.36
2023-05-14T12:15:43.072Z,34.36
2023-05-14T12:16:43.156Z,34.32
2023-05-14T12:17:43.070Z,34.33
2023-05-14T12:18:43.082Z,34.37
2023-05-14T12:19:42.991Z,34.35
2023-05-14T12:20:42.979Z,34.34
2023-05-14T12:21:42.974Z,34.34
2023-05-14T12:22:42.968Z,34.31
2023-05-14T12:23:42.963Z,34.34
2023-05-14T12:24:42.949Z,34.34
2023-05-14T12:25:42.951Z,34.37
2023-05-14T12:26:42.934Z,34.38
2023-05-14T12:27:42.928Z,34.37
2023-05-14T12:28:42.945Z,34.34
2023-05-14T12:29:42.911Z,34.37
2023-05-14T12:30:42.907Z,34.36
2023-05-14T12:31:42.902Z,34.38
2023-05-14T12:32:42.960Z,34.34
2023-05-14T12:33:42.890Z,34.37
2023-05-14T12:34:42.877Z,34.38
2023-05-14T12:35:42.869Z,34.35
2023-05-14T12:36:42.864Z,34.38
2023-05-14T12:37:42.864Z,34.36
2023-05-14T12:38:42.937Z,34.35
2023-05-14T12:39:42.942Z,34.37
2023-05-14T12:40:43.017Z,34.38
2023-05-14T12:41:43.050Z,34.38
2023-05-14T12:42:43.112Z,34.39
2023-05-14T12:43:43.143Z,34.40
2023-05-14T12:44:43.219Z,34.37
2023-05-14T12:45:43.233Z,34.40
2023-05-14T12:46:43.333Z,34.40
2023-05-14T12:47:43.389Z,34.37
2023-05-14T12:48:43.384Z,34.38
2023-05-14T12:49:43.456Z,34.40
2023-05-14T12:50:43.484Z,34.37
2023-05-14T12:51:43.556Z,34.35
2023-05-14T12:52:43.573Z,34.33